Terminal Aerodrome Forecast
Issued by NWS

Home | Current Version | Previous Version | Text Only | Print | Product List | Glossary On
Versions: 1 2 3 4 5 6 7 8 9 10 11 12 13 14 15 16 17 18 19 20
000
FTUS46 KSGX 010500
TAFCRQ
TAF
KCRQ 010520Z 0106/0206 VRB05KT P6SM FEW007 SCT200
     FM010700 VRB03KT P6SM OVC008
     FM011530 VRB03KT P6SM SCT013 SCT200
     FM012000 24009KT P6SM FEW013 SCT200
     FM020100 VRB05KT P6SM SCT013 SCT200
     FM020400 VRB05KT P6SM BKN008=

USA.gov is the U.S. government's official web portal to all federal, state and local government web resources and services.